Roches Point, Ireland

11:13 AM IST on July 30, 2016 (GMT +0100)
cork | | Change Station

Elev 23 ft 51.92 °N, 8.18 °W | Updated 4 minutes ago

Mostly Cloudy
Mostly Cloudy
65.5 °F
Feels Like 65.5 °F
N
3.8
Wind Variable Wind from ENE
Gusts 5.4 mph

Today
High -- | Low -- °F
--% Chance of Precip.
Yesterday
High -- | Low -- °F
Precip. -- in
Pressure 30.04 in
Visibility 6.2 miles
Clouds Few 1300 ft
Mostly Cloudy 4800 ft
Dew Point 51 °F
Humidity 59%
Rainfall 0.00 in
Snow Depth Not available.
5:53 AM 9:24 PM
Waning Crescent, 14% visible
METAR EICK 301000Z 33010KT 9999 FEW013 BKN048 15/09 Q1017 NOSIG
Pressure 30.04 in
Visibility 6.2 miles
Clouds Few 1300 ft
Mostly Cloudy 4800 ft
Dew Point 51 °F
Humidity 59%
Rainfall 0.00 in
Snow Depth Not available.
5:53 AM 9:24 PM
Waning Crescent, 14% visible
METAR EICK 301000Z 33010KT 9999 FEW013 BKN048 15/09 Q1017 NOSIG

10-Day Weather Forecast

×

Almanac

Astronomy

Jul. 30, 2016 Rise Set
Actual Time
Civil Twilight
Nautical Twilight
Astronomical Twilight
Moon
Length of Visible Light
Length of Day
Tomorrow will be .
, % of the Moon is Illuminated

Today's Extremes

Country Highs Country Lows

Community

WunderPhotos

Upload Photos

1,928,528 photos uploaded!

WunderBlog® & News

Nearby

Air Quality

  Air Quality AQ Index Pollutant
Not available.

Snow Depth

Station Depth Elevation

Earthquake Activity

City Distance Mag. Time & Date
Minimum magnitude displayed is 2.5.

Coastal Water Temperatures

Place Temperature

Stations

Nearby Weather Stations

Station Location Temp. Windchill Dew Point Humidity Wind Precip. Elev Updated Type